Aviation Digital Data Service (ADDS)

Output produced by METARs form (1337 UTC 26 May 2018)
found at http://www.aviationweather.gov/adds/metars/
 
TAF COR MMCS 260504Z 2606/2706 23005KT P6SM BKN250 
     FM261800 25010KT P6SM BKN250 
     FM270400 24005KT P6SM SCT250
       
TAF MMAA 261008Z 2612/2718 26005KT 5SM HZ SCT020 BKN300 TX32/2618Z TN28/2612Z 
     TEMPO 2612/2615 5SM -RA BKN020CB 
     FM261800 23010KT 6SM HZ SCT020 SCT300 
     FM270400 23005KT 6SM HZ SCT300 
     TEMPO 2706/2710 6SM -RA BKN010CB 
     FM271800 23010KT 6SM HZ SCT020
       
TAF MMAN 260424Z 2606/2706 15005KT 6SM HZ SKC 
     TEMPO 2612/2615 3SM BR BKN010 
     FM261800 14010KT P6SM SCT030 
     FM270400 14005KT P6SM SKC
       
TAF MMAS 260408Z 2606/2706 00000KT P6SM SKC 
     FM261700 01010KT P6SM SCT020 
     TEMPO 2622/2702 SCT020CB VC TS 
     FM270200 13010KT P6SM SCT020 BKN250
       
TAF MMBT 260357Z 2606/2706 32008KT 6SM HZ SCT020 BKN220 
     TEMPO 2610/2614 4SM TSRA BKN020CB 
     FM261400 34007KT 5SM -RA HZ SCT015 BKN080 BKN250 
     TEMPO 2623/2703 3SM TSRA BKN015CB 
     FM270300 31008KT 4SM TSRA BKN015CB OVC060
       
TAF MMCB 260357Z 2606/2706 36005KT P6SM BKN250 
     FM261800 36010KT P6SM BKN250 
     TEMPO 2623/2703 SCT020CB VC TS 
     FM270300 01005KT P6SM SCT020 BKN250
       
TAF MMCE 260433Z 2606/2706 05012KT P6SM BKN015 
     FM261800 30010KT 5SM HZ BKN015 BKN060 
     TEMPO 2622/2702 4SM -RA 
     FM270200 24005KT 4SM -RA BKN015 OVC070
       
TAF MMCL 260403Z 2606/2706 16005KT 6SM HZ SCT250 
     FM261800 22010KT P6SM BKN250 
     FM270400 23005KT P6SM BKN250
       
TAF MMCM 260433Z 2606/2706 33005KT P6SM SCT020 BKN100 
     TEMPO 2610/2614 4SM TSRA BKN020CB 
     FM261400 28005KT 5SM HZ SCT015 BKN060 
     TEMPO 2622/2702 4SM RA BKN015 
     FM270200 00000KT 5SM -RA HZ SCT015 BKN060 OVC090
       
TAF MMCN 260416Z 2606/2706 32005KT P6SM SCT100 BKN250 
     FM261800 28010KT P6SM BKN250 
     BECMG 2620/2621 29016KT 
     FM270300 32008KT P6SM SKC
       
TAF MMCP 260433Z 2606/2706 03010KT P6SM SCT015 
     FM261700 31010KT P6SM BKN015 BKN060 
     TEMPO 2622/2702 4SM -RA OVC020 
     FM270200 35005KT 5SM -RA SCT015 BKN040 BKN080
       
TAF COR MMCS 260504Z 2606/2706 23005KT P6SM BKN250 
     FM261800 25010KT P6SM BKN250 
     FM270400 24005KT P6SM SCT250
       
TAF MMCU 260424Z 2606/2706 20005KT P6SM BKN200 
     FM261800 33010KT P6SM SCT030 BKN200 
     FM270300 14008KT P6SM BKN200
       
TAF MMCV 260441Z 2606/2706 10010KT P6SM SKC 
     BECMG 2608/2609 00000KT SCT015 
     FM261700 13010KT P6SM SCT015 
     BECMG 2703/2704 12005KT
       
TAF MMCZ 261022Z 2612/2718 34008KT 6SM HZ SCT015 BKN250 
     TEMPO 2612/2615 6SM -RA BKN015CB 
     FM261800 33015KT 6SM HZ SCT020 BKN250 
     TEMPO 2621/2701 6SM TSRA BKN010CB 
     FM270300 30008KT 6SM HZ SCT015 BKN250 
     FM271800 30010KT P6SM SCT020 SCT250
       
TAF COR MMDO 260501Z 2606/2706 36005KT P6SM SCT030 
     FM261800 04010KT P6SM SCT030 SCT100 
     BECMG 2702/2703 04005KT
       
TAF MMEP 260408Z 2606/2706 03005KT 5SM HZ SCT015 
     TEMPO 2610/2614 3SM BR HZ BKN015 
     FM261400 04005KT P6SM SKC 
     BECMG 2621/2622 26010KT 
     FM270300 05005KT P6SM SKC
       
TAF MMGL 261015Z 2612/2718 30005KT P6SM SCT090 TX34/2621Z TN18/2612Z 
     FM261800 03010KT P6SM SCT030 
     FM270300 03005KT 6SM HZ SKC 
     FM271800 03010KT P6SM SKC
       
TAF MMGM 260416Z 2606/2706 20005KT P6SM BKN200 
     FM261700 31010KT P6SM BKN250 
     BECMG 2620/2621 31015KT 
     FM270400 30005KT P6SM BKN250
       
TAF MMHO 260403Z 2606/2706 26005KT P6SM SCT200 
     FM261800 23010KT P6SM BKN200 
     FM270300 23005KT P6SM BKN200
       
TAF MMIA 260408Z 2606/2706 00000KT 6SM HZ SKC 
     FM261700 22010KT P6SM SCT020 
     TEMPO 2623/2703 5SM -TSRA BKN020CB 
     FM270300 22005KT P6SM SCT015 BKN080 BKN250
       
TAF MMIO 260424Z 2606/2706 02005KT P6SM SKC 
     FM261800 03012KT P6SM SKC 
     FM270400 03005KT P6SM SKC
       
TAF MMLM 260416Z 2606/2706 31005KT P6SM BKN200 
     FM261700 32015KT P6SM BKN250 
     BECMG 2703/2704 30006KT
       
TAF MMLO 260408Z 2606/2706 04005KT P6SM SKC 
     FM261800 04010KT P6SM SCT020 BKN250 
     TEMPO 2623/2703 SCT020CB VC TS 
     FM270300 04005KT P6SM SCT020 BKN250
       
TAF MMLP 260403Z 2606/2706 16005KT P6SM SCT200 
     FM261600 34010KT P6SM SCT200 
     FM270400 15005KT P6SM SCT200
       
TAF MMLT 260416Z 2606/2706 05010KT P6SM BKN240 
     FM261700 31016KT P6SM BKN250 
     BECMG 2703/2704 32005KT
       
TAF MMMA 260441Z 2606/2706 15008KT P6SM SCT015 
     TEMPO 2610/2614 3SM BR BKN020 
     FM261800 15015KT P6SM SCT020 
     TEMPO 2623/2703 SCT030CB VC TS
       
TAF MMMD 261022Z 2612/2718 02008KT 6SM HZ SKC TX32/2621Z TN24/2612Z 
     TEMPO 2612/2615 3SM HZ BKN010 
     FM261800 03015KT 6SM HZ SCT030 
     TEMPO 2622/2702 5SM TSRA BKN020CB 
     FM270600 33008KT 6SM HZ SKC 
     FM271800 33010KT 6SM HZ SCT030
       
TAF MMML 260403Z 2606/2706 30015KT 6SM HZ SKC 
     BECMG 2608/2609 30008KT 
     FM261800 30015KT P6SM SKC 
     FM270300 33008KT P6SM SKC
       
TAF MMMM 261015Z 2612/2718 00000KT 6SM HZ SKC 
     TEMPO 2612/2615 3SM HZ 
     FM261800 03010KT 6SM HZ SCT030 
     FM270300 03005KT 6SM HZ SKC 
     FM271800 03010KT P6SM SKC
       
TAF MMMT 260433Z 2606/2706 36010KT P6SM SCT023 
     TEMPO 2610/2614 4SM -RA BKN023 
     FM261400 35005KT P6SM BKN025 BKN070 
     TEMPO 2622/2702 5SM -RA BKN020
       
TAF MMMV 260424Z 2606/2706 13005KT 6SM HZ SKC 
     FM261800 13010KT P6SM SKC 
     FM270300 13005KT 6SM HZ SKC
       
TAF MMMX 261008Z 2612/2718 05005KT 6SM HZ SKC TX26/2621Z TN12/2612Z 
     TEMPO 2612/2615 4SM HZ 
     FM261800 05010KT P6SM SCT020 
     FM270300 03005KT 6SM HZ SKC 
     FM271800 03010KT P6SM SCT030
       
TAF MMMY 261024Z 2612/2718 13005KT 6SM HZ SKC TX34/2621Z TN22/2612Z 
     TEMPO 2612/2615 3SM HZ BKN010 
     FM261800 13015KT P6SM SCT030 
     FM270400 15005KT 6SM HZ SKC 
     FM271800 13010KT P6SM SCT030
       
TAF MMMZ 261003Z 2612/2718 00000KT 6SM HZ SCT250 TX31/2619Z TN21/2612Z 
     FM261800 24010KT P6SM SCT250 
     FM270400 24005KT P6SM SCT250 
     FM271800 23010KT P6SM SKC
       
TAF MMNL 260441Z 2606/2706 13010KT P6SM SCT040 
     BECMG 2608/2609 00000KT 
     TEMPO 2610/2614 3SM BR BKN020 
     FM261400 15010KT P6SM SCT020 
     BECMG 2621/2622 16015KT 
     FM270300 15005KT P6SM SCT020
       
TAF MMOX 260357Z 2606/2706 00000KT P6SM BKN250 
     FM261700 13010KT P6SM SCT020 BKN250 
     BECMG 2702/2703 13005KT
       
TAF MMPA 260441Z 2606/2706 16005KT P6SM SCT020 
     TEMPO 2610/2614 4SM HZ BKN020 
     FM261400 18005KT 5SM HZ SCT020 
     FM261800 06010KT P6SM SCT020 
     BECMG 2702/2703 22005KT
       
TAF MMPB 260357Z 2606/2706 35005KT P6SM BKN250 
     FM261800 34010KT P6SM BKN250 
     BECMG 2703/2704 34005KT
       
TAF MMPG 260441Z 2606/2706 12005KT P6SM SCT035 BKN200 
     FM261700 18007KT P6SM SCT020 
     BECMG 2621/2622 17010KT 
     FM270300 17005KT P6SM SKC
       
TAF MMPN 260408Z 2606/2706 36005KT P6SM SCT020 BKN260 
     FM261700 19010KT P6SM SCT020 BKN250 
     TEMPO 2623/2703 SCT020CB VC TS 
     FM270300 00000KT 5SM HZ SCT030CB BKN250
       
TAF MMPQ 260433Z 2606/2706 28010KT P6SM BKN040 
     TEMPO 2610/2614 4SM -RA 
     FM261400 26005KT 5SM -RA SCT015 BKN050 
     FM261700 35007KT P6SM SCT020 BKN040 
     BECMG 2703/2704 00000KT
       
TAF MMPR 261015Z 2612/2718 00000KT P6SM SCT070 TX30/2619Z TN22/2612Z 
     FM261700 22010KT P6SM SKC 
     FM270300 23005KT P6SM SKC 
     FM271800 23010KT P6SM SKC
       
TAF MMPS 260357Z 2606/2706 29005KT 6SM HZ SCT015 BKN070 OVC310 
     TEMPO 2610/2614 5SM RA BKN015 
     FM261800 26010KT 5SM HZ SCT015CB BKN080 BKN250 
     TEMPO 2622/2702 4SM TSRA BKN020CB 
     FM270200 30005KT 5SM -TSRA BKN015CB OVC060
       
TAF MMQT 260408Z 2606/2706 09005KT 6SM HZ SCT020 BKN200 
     FM261700 04010KT P6SM SCT020 BKN250 
     TEMPO 2623/2703 SCT020CB 
     FM270300 07010KT P6SM SCT020 BKN250
       
TAF MMRX 260441Z 2606/2706 12015KT 5SM HZ SCT015 
     TEMPO 2610/2614 3SM BR BKN015 
     FM261400 13005KT P6SM SCT015 
     FM261800 13010KT P6SM SCT020 
     BECMG 2703/2704 15008KT
       
TAF MMSD 260416Z 2606/2706 31010KT P6SM BKN250 
     FM261700 13010KT P6SM BKN250 
     BECMG 2703/2704 32015KT
       
TAF MMSL 260416Z 2606/2706 30015KT P6SM SKC 
     FM261700 13010KT P6SM SKC 
     BECMG 2701/2702 32013KT
       
TAF MMSP 261015Z 2612/2718 12005KT 6SM HZ SKC TX31/2621Z TN15/2612Z 
     TEMPO 2612/2614 3SM HZ BKN010 
     FM261800 13010KT P6SM SCT030 
     FM270300 13005KT 6SM HZ SKC 
     FM271800 13010KT P6SM SKC
       
TAF MMTC 260424Z 2606/2706 04008KT P6SM SCT100 SCT200 
     FM261800 03010KT P6SM SCT030 SCT200 
     FM270400 03005KT P6SM SCT200
       
TAF MMTG 260413Z 2606/2706 30010KT 6SM HZ SCT080 SCT300 
     FM261000 34005KT 6SM HZ SCT020 
     FM261800 30010G20KT P6SM SCT030 SCT200 
     TEMPO 2623/2703 6SM -RA BKN020CB
       
TAF AMD MMTJ 261315Z 2613/2718 30006KT 6SM -RA BKN015 TX20/2621Z TN14/2712Z 
     TEMPO 2613/2615 BKN010 4SM -RA 
     FM261600 32010KT 4SM HZ BKN020 
     FM261800 30010KT 6SM HZ SCT020 
     FM270300 30005KT 6SM HZ SCT020 
     BECMG 2706/2707 BKN020 
     TEMPO 2711/2715 BKN015 
     FM271800 33010KT 6SM HZ SCT020
       
TAF MMTM 260351Z 2606/2706 08005KT 6SM HZ SKC 
     TEMPO 2612/2615 BKN010 
     FM261800 12010KT 6SM HZ SKC 
     FM270300 13005KT 6SM HZ SKC
       
TAF MMTO 261008Z 2612/2718 03005KT 6SM HZ SKC TX24/2621Z TN08/2612Z 
     TEMPO 2612/2615 3SM HZ 
     FM261800 03010KT 6SM HZ SKC 
     FM270400 03005KT 6SM HZ SKC 
     FM271800 03010KT 6SM HZ SKC
       
TAF MMTP 261022Z 2612/2718 00000KT P6SM SCT020 BKN100 
     FM261800 22010KT P6SM SCT030 SCT200 
     TEMPO 2623/2703 6SM TSRA BKN020CB 
     FM270400 23005KT P6SM SCT010 BKN100 BKN200 
     FM271800 23010KT P6SM SCT020 SCT200
       
TAF MMUN 261022Z 2612/2718 35005KT 6SM HZ BKN010 BKN100 BKN250 TX27/2619Z TN23/2612Z 
     TEMPO 2612/2615 6SM -RA BKN010CB 
     FM261800 30015KT 6SM -RA SCT015CB BKN250 
     TEMPO 2621/2701 5SM TSRA BKN010CB 
     FM270500 30012KT 6SM HZ SCT015 SCT100 BKN250 
     FM271800 33010KT 6SM HZ SCT020 SCT250
       
TAF MMVA 260433Z 2606/2706 00000KT 5SM HZ BKN020 
     TEMPO 2610/2614 5SM -RA 
     FM261800 36006KT P6SM BKN015 BKN050 
     BECMG 2703/2704 00000KT
       
TAF MMVR 260351Z 2606/2706 00000KT 6SM HZ SCT010 TX31/2619Z TN25/2612Z 
     FM261800 04010KT 6SM HZ SCT015 
     FM270300 03005KT 6SM HZ SKC
       
TAF MMZC 261015Z 2612/2718 05008KT P6SM SKC TX31/2621Z TN12/2612Z 
     FM261800 05010G20KT P6SM SCT040 
     FM270400 06010KT 6SM HZ SKC 
     FM271800 03015KT P6SM SKC
       
TAF MMZH 260357Z 2606/2706 34005KT 6SM HZ SKC 
     FM261700 24010KT P6SM SKC 
     BECMG 2703/2704 26005KT
       
TAF MMZO 260356Z 2606/2706 30005KT P6SM SKC 
     FM261800 24010KT P6SM SKC 
     FM270400 23005KT P6SM SKC
       
TAF MMAA 261008Z 2612/2718 26005KT 5SM HZ SCT020 BKN300 TX32/2618Z TN28/2612Z 
     TEMPO 2612/2615 5SM -RA BKN020CB 
     FM261800 23010KT 6SM HZ SCT020 SCT300 
     FM270400 23005KT 6SM HZ SCT300 
     TEMPO 2706/2710 6SM -RA BKN010CB 
     FM271800 23010KT 6SM HZ SCT020
       
TAF MMAN 260424Z 2606/2706 15005KT 6SM HZ SKC 
     TEMPO 2612/2615 3SM BR BKN010 
     FM261800 14010KT P6SM SCT030 
     FM270400 14005KT P6SM SKC
       
TAF MMAS 260408Z 2606/2706 00000KT P6SM SKC 
     FM261700 01010KT P6SM SCT020 
     TEMPO 2622/2702 SCT020CB VC TS 
     FM270200 13010KT P6SM SCT020 BKN250
       
TAF MMBT 260357Z 2606/2706 32008KT 6SM HZ SCT020 BKN220 
     TEMPO 2610/2614 4SM TSRA BKN020CB 
     FM261400 34007KT 5SM -RA HZ SCT015 BKN080 BKN250 
     TEMPO 2623/2703 3SM TSRA BKN015CB 
     FM270300 31008KT 4SM TSRA BKN015CB OVC060
       
TAF MMCB 260357Z 2606/2706 36005KT P6SM BKN250 
     FM261800 36010KT P6SM BKN250 
     TEMPO 2623/2703 SCT020CB VC TS 
     FM270300 01005KT P6SM SCT020 BKN250
       
TAF MMCE 260433Z 2606/2706 05012KT P6SM BKN015 
     FM261800 30010KT 5SM HZ BKN015 BKN060 
     TEMPO 2622/2702 4SM -RA 
     FM270200 24005KT 4SM -RA BKN015 OVC070
       
TAF MMCL 260403Z 2606/2706 16005KT 6SM HZ SCT250 
     FM261800 22010KT P6SM BKN250 
     FM270400 23005KT P6SM BKN250
       
TAF MMCM 260433Z 2606/2706 33005KT P6SM SCT020 BKN100 
     TEMPO 2610/2614 4SM TSRA BKN020CB 
     FM261400 28005KT 5SM HZ SCT015 BKN060 
     TEMPO 2622/2702 4SM RA BKN015 
     FM270200 00000KT 5SM -RA HZ SCT015 BKN060 OVC090
       
TAF MMCN 260416Z 2606/2706 32005KT P6SM SCT100 BKN250 
     FM261800 28010KT P6SM BKN250 
     BECMG 2620/2621 29016KT 
     FM270300 32008KT P6SM SKC
       
TAF MMCP 260433Z 2606/2706 03010KT P6SM SCT015 
     FM261700 31010KT P6SM BKN015 BKN060 
     TEMPO 2622/2702 4SM -RA OVC020 
     FM270200 35005KT 5SM -RA SCT015 BKN040 BKN080
       
TAF COR MMCS 260504Z 2606/2706 23005KT P6SM BKN250 
     FM261800 25010KT P6SM BKN250 
     FM270400 24005KT P6SM SCT250
       
TAF MMCU 260424Z 2606/2706 20005KT P6SM BKN200 
     FM261800 33010KT P6SM SCT030 BKN200 
     FM270300 14008KT P6SM BKN200
       
TAF MMCV 260441Z 2606/2706 10010KT P6SM SKC 
     BECMG 2608/2609 00000KT SCT015 
     FM261700 13010KT P6SM SCT015 
     BECMG 2703/2704 12005KT
       
TAF MMCZ 261022Z 2612/2718 34008KT 6SM HZ SCT015 BKN250 
     TEMPO 2612/2615 6SM -RA BKN015CB 
     FM261800 33015KT 6SM HZ SCT020 BKN250 
     TEMPO 2621/2701 6SM TSRA BKN010CB 
     FM270300 30008KT 6SM HZ SCT015 BKN250 
     FM271800 30010KT P6SM SCT020 SCT250
       
TAF COR MMDO 260501Z 2606/2706 36005KT P6SM SCT030 
     FM261800 04010KT P6SM SCT030 SCT100 
     BECMG 2702/2703 04005KT
       
TAF MMEP 260408Z 2606/2706 03005KT 5SM HZ SCT015 
     TEMPO 2610/2614 3SM BR HZ BKN015 
     FM261400 04005KT P6SM SKC 
     BECMG 2621/2622 26010KT 
     FM270300 05005KT P6SM SKC
       
TAF MMGL 261015Z 2612/2718 30005KT P6SM SCT090 TX34/2621Z TN18/2612Z 
     FM261800 03010KT P6SM SCT030 
     FM270300 03005KT 6SM HZ SKC 
     FM271800 03010KT P6SM SKC
       
TAF MMGM 260416Z 2606/2706 20005KT P6SM BKN200 
     FM261700 31010KT P6SM BKN250 
     BECMG 2620/2621 31015KT 
     FM270400 30005KT P6SM BKN250
       
TAF MMHO 260403Z 2606/2706 26005KT P6SM SCT200 
     FM261800 23010KT P6SM BKN200 
     FM270300 23005KT P6SM BKN200
       
TAF MMIA 260408Z 2606/2706 00000KT 6SM HZ SKC 
     FM261700 22010KT P6SM SCT020 
     TEMPO 2623/2703 5SM -TSRA BKN020CB 
     FM270300 22005KT P6SM SCT015 BKN080 BKN250
       
TAF MMIO 260424Z 2606/2706 02005KT P6SM SKC 
     FM261800 03012KT P6SM SKC 
     FM270400 03005KT P6SM SKC
       
TAF MMLM 260416Z 2606/2706 31005KT P6SM BKN200 
     FM261700 32015KT P6SM BKN250 
     BECMG 2703/2704 30006KT
       
TAF MMLO 260408Z 2606/2706 04005KT P6SM SKC 
     FM261800 04010KT P6SM SCT020 BKN250 
     TEMPO 2623/2703 SCT020CB VC TS 
     FM270300 04005KT P6SM SCT020 BKN250
       
TAF MMLP 260403Z 2606/2706 16005KT P6SM SCT200 
     FM261600 34010KT P6SM SCT200 
     FM270400 15005KT P6SM SCT200
       
TAF MMLT 260416Z 2606/2706 05010KT P6SM BKN240 
     FM261700 31016KT P6SM BKN250 
     BECMG 2703/2704 32005KT
       
TAF MMMA 260441Z 2606/2706 15008KT P6SM SCT015 
     TEMPO 2610/2614 3SM BR BKN020 
     FM261800 15015KT P6SM SCT020 
     TEMPO 2623/2703 SCT030CB VC TS
       
TAF MMMD 261022Z 2612/2718 02008KT 6SM HZ SKC TX32/2621Z TN24/2612Z 
     TEMPO 2612/2615 3SM HZ BKN010 
     FM261800 03015KT 6SM HZ SCT030 
     TEMPO 2622/2702 5SM TSRA BKN020CB 
     FM270600 33008KT 6SM HZ SKC 
     FM271800 33010KT 6SM HZ SCT030
       
TAF MMML 260403Z 2606/2706 30015KT 6SM HZ SKC 
     BECMG 2608/2609 30008KT 
     FM261800 30015KT P6SM SKC 
     FM270300 33008KT P6SM SKC
       
TAF MMMM 261015Z 2612/2718 00000KT 6SM HZ SKC 
     TEMPO 2612/2615 3SM HZ 
     FM261800 03010KT 6SM HZ SCT030 
     FM270300 03005KT 6SM HZ SKC 
     FM271800 03010KT P6SM SKC
       
TAF MMMT 260433Z 2606/2706 36010KT P6SM SCT023 
     TEMPO 2610/2614 4SM -RA BKN023 
     FM261400 35005KT P6SM BKN025 BKN070 
     TEMPO 2622/2702 5SM -RA BKN020
       
TAF MMMV 260424Z 2606/2706 13005KT 6SM HZ SKC 
     FM261800 13010KT P6SM SKC 
     FM270300 13005KT 6SM HZ SKC
       
TAF MMMX 261008Z 2612/2718 05005KT 6SM HZ SKC TX26/2621Z TN12/2612Z 
     TEMPO 2612/2615 4SM HZ 
     FM261800 05010KT P6SM SCT020 
     FM270300 03005KT 6SM HZ SKC 
     FM271800 03010KT P6SM SCT030
       
TAF MMMY 261024Z 2612/2718 13005KT 6SM HZ SKC TX34/2621Z TN22/2612Z 
     TEMPO 2612/2615 3SM HZ BKN010 
     FM261800 13015KT P6SM SCT030 
     FM270400 15005KT 6SM HZ SKC 
     FM271800 13010KT P6SM SCT030
       
TAF MMMZ 261003Z 2612/2718 00000KT 6SM HZ SCT250 TX31/2619Z TN21/2612Z 
     FM261800 24010KT P6SM SCT250 
     FM270400 24005KT P6SM SCT250 
     FM271800 23010KT P6SM SKC
       
TAF MMNL 260441Z 2606/2706 13010KT P6SM SCT040 
     BECMG 2608/2609 00000KT 
     TEMPO 2610/2614 3SM BR BKN020 
     FM261400 15010KT P6SM SCT020 
     BECMG 2621/2622 16015KT 
     FM270300 15005KT P6SM SCT020
       
TAF MMOX 260357Z 2606/2706 00000KT P6SM BKN250 
     FM261700 13010KT P6SM SCT020 BKN250 
     BECMG 2702/2703 13005KT
       
TAF MMPA 260441Z 2606/2706 16005KT P6SM SCT020 
     TEMPO 2610/2614 4SM HZ BKN020 
     FM261400 18005KT 5SM HZ SCT020 
     FM261800 06010KT P6SM SCT020 
     BECMG 2702/2703 22005KT
       
TAF MMPB 260357Z 2606/2706 35005KT P6SM BKN250 
     FM261800 34010KT P6SM BKN250 
     BECMG 2703/2704 34005KT
       
TAF MMPG 260441Z 2606/2706 12005KT P6SM SCT035 BKN200 
     FM261700 18007KT P6SM SCT020 
     BECMG 2621/2622 17010KT 
     FM270300 17005KT P6SM SKC
       
TAF MMPN 260408Z 2606/2706 36005KT P6SM SCT020 BKN260 
     FM261700 19010KT P6SM SCT020 BKN250 
     TEMPO 2623/2703 SCT020CB VC TS 
     FM270300 00000KT 5SM HZ SCT030CB BKN250
       
TAF MMPQ 260433Z 2606/2706 28010KT P6SM BKN040 
     TEMPO 2610/2614 4SM -RA 
     FM261400 26005KT 5SM -RA SCT015 BKN050 
     FM261700 35007KT P6SM SCT020 BKN040 
     BECMG 2703/2704 00000KT
       
TAF MMPR 261015Z 2612/2718 00000KT P6SM SCT070 TX30/2619Z TN22/2612Z 
     FM261700 22010KT P6SM SKC 
     FM270300 23005KT P6SM SKC 
     FM271800 23010KT P6SM SKC
       
TAF MMPS 260357Z 2606/2706 29005KT 6SM HZ SCT015 BKN070 OVC310 
     TEMPO 2610/2614 5SM RA BKN015 
     FM261800 26010KT 5SM HZ SCT015CB BKN080 BKN250 
     TEMPO 2622/2702 4SM TSRA BKN020CB 
     FM270200 30005KT 5SM -TSRA BKN015CB OVC060
       
TAF MMQT 260408Z 2606/2706 09005KT 6SM HZ SCT020 BKN200 
     FM261700 04010KT P6SM SCT020 BKN250 
     TEMPO 2623/2703 SCT020CB 
     FM270300 07010KT P6SM SCT020 BKN250
       
TAF MMRX 260441Z 2606/2706 12015KT 5SM HZ SCT015 
     TEMPO 2610/2614 3SM BR BKN015 
     FM261400 13005KT P6SM SCT015 
     FM261800 13010KT P6SM SCT020 
     BECMG 2703/2704 15008KT
       
TAF MMSD 260416Z 2606/2706 31010KT P6SM BKN250 
     FM261700 13010KT P6SM BKN250 
     BECMG 2703/2704 32015KT
       
TAF MMSL 260416Z 2606/2706 30015KT P6SM SKC 
     FM261700 13010KT P6SM SKC 
     BECMG 2701/2702 32013KT
       
TAF MMSP 261015Z 2612/2718 12005KT 6SM HZ SKC TX31/2621Z TN15/2612Z 
     TEMPO 2612/2614 3SM HZ BKN010 
     FM261800 13010KT P6SM SCT030 
     FM270300 13005KT 6SM HZ SKC 
     FM271800 13010KT P6SM SKC
       
TAF MMTC 260424Z 2606/2706 04008KT P6SM SCT100 SCT200 
     FM261800 03010KT P6SM SCT030 SCT200 
     FM270400 03005KT P6SM SCT200
       
TAF MMTG 260413Z 2606/2706 30010KT 6SM HZ SCT080 SCT300 
     FM261000 34005KT 6SM HZ SCT020 
     FM261800 30010G20KT P6SM SCT030 SCT200 
     TEMPO 2623/2703 6SM -RA BKN020CB
       
TAF AMD MMTJ 261315Z 2613/2718 30006KT 6SM -RA BKN015 TX20/2621Z TN14/2712Z 
     TEMPO 2613/2615 BKN010 4SM -RA 
     FM261600 32010KT 4SM HZ BKN020 
     FM261800 30010KT 6SM HZ SCT020 
     FM270300 30005KT 6SM HZ SCT020 
     BECMG 2706/2707 BKN020 
     TEMPO 2711/2715 BKN015 
     FM271800 33010KT 6SM HZ SCT020
       
TAF MMTM 260351Z 2606/2706 08005KT 6SM HZ SKC 
     TEMPO 2612/2615 BKN010 
     FM261800 12010KT 6SM HZ SKC 
     FM270300 13005KT 6SM HZ SKC
       
TAF MMTO 261008Z 2612/2718 03005KT 6SM HZ SKC TX24/2621Z TN08/2612Z 
     TEMPO 2612/2615 3SM HZ 
     FM261800 03010KT 6SM HZ SKC 
     FM270400 03005KT 6SM HZ SKC 
     FM271800 03010KT 6SM HZ SKC
       
TAF MMTP 261022Z 2612/2718 00000KT P6SM SCT020 BKN100 
     FM261800 22010KT P6SM SCT030 SCT200 
     TEMPO 2623/2703 6SM TSRA BKN020CB 
     FM270400 23005KT P6SM SCT010 BKN100 BKN200 
     FM271800 23010KT P6SM SCT020 SCT200
       
TAF MMUN 261022Z 2612/2718 35005KT 6SM HZ BKN010 BKN100 BKN250 TX27/2619Z TN23/2612Z 
     TEMPO 2612/2615 6SM -RA BKN010CB 
     FM261800 30015KT 6SM -RA SCT015CB BKN250 
     TEMPO 2621/2701 5SM TSRA BKN010CB 
     FM270500 30012KT 6SM HZ SCT015 SCT100 BKN250 
     FM271800 33010KT 6SM HZ SCT020 SCT250
       
TAF MMVA 260433Z 2606/2706 00000KT 5SM HZ BKN020 
     TEMPO 2610/2614 5SM -RA 
     FM261800 36006KT P6SM BKN015 BKN050 
     BECMG 2703/2704 00000KT
       
TAF MMVR 260351Z 2606/2706 00000KT 6SM HZ SCT010 TX31/2619Z TN25/2612Z 
     FM261800 04010KT 6SM HZ SCT015 
     FM270300 03005KT 6SM HZ SKC
       
TAF MMZC 261015Z 2612/2718 05008KT P6SM SKC TX31/2621Z TN12/2612Z 
     FM261800 05010G20KT P6SM SCT040 
     FM270400 06010KT 6SM HZ SKC 
     FM271800 03015KT P6SM SKC
       
TAF MMZH 260357Z 2606/2706 34005KT 6SM HZ SKC 
     FM261700 24010KT P6SM SKC 
     BECMG 2703/2704 26005KT
       
TAF MMZO 260356Z 2606/2706 30005KT P6SM SKC 
     FM261800 24010KT P6SM SKC 
     FM270400 23005KT P6SM SKC
       
TAF MMBT 260357Z 2606/2706 32008KT 6SM HZ SCT020 BKN220 
     TEMPO 2610/2614 4SM TSRA BKN020CB 
     FM261400 34007KT 5SM -RA HZ SCT015 BKN080 BKN250 
     TEMPO 2623/2703 3SM TSRA BKN015CB 
     FM270300 31008KT 4SM TSRA BKN015CB OVC060
       
TAF MMVA 260433Z 2606/2706 00000KT 5SM HZ BKN020 
     TEMPO 2610/2614 5SM -RA 
     FM261800 36006KT P6SM BKN015 BKN050 
     BECMG 2703/2704 00000KT
       
TAF MMUN 261022Z 2612/2718 35005KT 6SM HZ BKN010 BKN100 BKN250 TX27/2619Z TN23/2612Z 
     TEMPO 2612/2615 6SM -RA BKN010CB 
     FM261800 30015KT 6SM -RA SCT015CB BKN250 
     TEMPO 2621/2701 5SM TSRA BKN010CB 
     FM270500 30012KT 6SM HZ SCT015 SCT100 BKN250 
     FM271800 33010KT 6SM HZ SCT020 SCT250
       
TAF MMCM 260433Z 2606/2706 33005KT P6SM SCT020 BKN100 
     TEMPO 2610/2614 4SM TSRA BKN020CB 
     FM261400 28005KT 5SM HZ SCT015 BKN060 
     TEMPO 2622/2702 4SM RA BKN015 
     FM270200 00000KT 5SM -RA HZ SCT015 BKN060 OVC090
       
TAF MMCE 260433Z 2606/2706 05012KT P6SM BKN015 
     FM261800 30010KT 5SM HZ BKN015 BKN060 
     TEMPO 2622/2702 4SM -RA 
     FM270200 24005KT 4SM -RA BKN015 OVC070
       
TAF MMCN 260416Z 2606/2706 32005KT P6SM SCT100 BKN250 
     FM261800 28010KT P6SM BKN250 
     BECMG 2620/2621 29016KT 
     FM270300 32008KT P6SM SKC
       
TAF MMCV 260441Z 2606/2706 10010KT P6SM SKC 
     BECMG 2608/2609 00000KT SCT015 
     FM261700 13010KT P6SM SCT015 
     BECMG 2703/2704 12005KT
       
TAF MMCZ 261022Z 2612/2718 34008KT 6SM HZ SCT015 BKN250 
     TEMPO 2612/2615 6SM -RA BKN015CB 
     FM261800 33015KT 6SM HZ SCT020 BKN250 
     TEMPO 2621/2701 6SM TSRA BKN010CB 
     FM270300 30008KT 6SM HZ SCT015 BKN250 
     FM271800 30010KT P6SM SCT020 SCT250
       
TAF MMCB 260357Z 2606/2706 36005KT P6SM BKN250 
     FM261800 36010KT P6SM BKN250 
     TEMPO 2623/2703 SCT020CB VC TS 
     FM270300 01005KT P6SM SCT020 BKN250
       
TAF MMCL 260403Z 2606/2706 16005KT 6SM HZ SCT250 
     FM261800 22010KT P6SM BKN250 
     FM270400 23005KT P6SM BKN250
       
TAF MMLO 260408Z 2606/2706 04005KT P6SM SKC 
     FM261800 04010KT P6SM SCT020 BKN250 
     TEMPO 2623/2703 SCT020CB VC TS 
     FM270300 04005KT P6SM SCT020 BKN250
       
TAF MMAN 260424Z 2606/2706 15005KT 6SM HZ SKC 
     TEMPO 2612/2615 3SM BR BKN010 
     FM261800 14010KT P6SM SCT030 
     FM270400 14005KT P6SM SKC
       
TAF MMGL 261015Z 2612/2718 30005KT P6SM SCT090 TX34/2621Z TN18/2612Z 
     FM261800 03010KT P6SM SCT030 
     FM270300 03005KT 6SM HZ SKC 
     FM271800 03010KT P6SM SKC
       
TAF COR MMDO 260501Z 2606/2706 36005KT P6SM SCT030 
     FM261800 04010KT P6SM SCT030 SCT100 
     BECMG 2702/2703 04005KT
       
TAF MMTG 260413Z 2606/2706 30010KT 6SM HZ SCT080 SCT300 
     FM261000 34005KT 6SM HZ SCT020 
     FM261800 30010G20KT P6SM SCT030 SCT200 
     TEMPO 2623/2703 6SM -RA BKN020CB
       
TAF AMD MMTJ 261315Z 2613/2718 30006KT 6SM -RA BKN015 TX20/2621Z TN14/2712Z 
     TEMPO 2613/2615 BKN010 4SM -RA 
     FM261600 32010KT 4SM HZ BKN020 
     FM261800 30010KT 6SM HZ SCT020 
     FM270300 30005KT 6SM HZ SCT020 
     BECMG 2706/2707 BKN020 
     TEMPO 2711/2715 BKN015 
     FM271800 33010KT 6SM HZ SCT020
       
TAF MMMM 261015Z 2612/2718 00000KT 6SM HZ SKC 
     TEMPO 2612/2615 3SM HZ 
     FM261800 03010KT 6SM HZ SCT030 
     FM270300 03005KT 6SM HZ SKC 
     FM271800 03010KT P6SM SKC
       
TAF MMTM 260351Z 2606/2706 08005KT 6SM HZ SKC 
     TEMPO 2612/2615 BKN010 
     FM261800 12010KT 6SM HZ SKC 
     FM270300 13005KT 6SM HZ SKC
       
TAF MMVR 260351Z 2606/2706 00000KT 6SM HZ SCT010 TX31/2619Z TN25/2612Z 
     FM261800 04010KT 6SM HZ SCT015 
     FM270300 03005KT 6SM HZ SKC
       
TAF MMHO 260403Z 2606/2706 26005KT P6SM SCT200 
     FM261800 23010KT P6SM BKN200 
     FM270300 23005KT P6SM BKN200
       
TAF MMGM 260416Z 2606/2706 20005KT P6SM BKN200 
     FM261700 31010KT P6SM BKN250 
     BECMG 2620/2621 31015KT 
     FM270400 30005KT P6SM BKN250
       
TAF MMAA 261008Z 2612/2718 26005KT 5SM HZ SCT020 BKN300 TX32/2618Z TN28/2612Z 
     TEMPO 2612/2615 5SM -RA BKN020CB 
     FM261800 23010KT 6SM HZ SCT020 SCT300 
     FM270400 23005KT 6SM HZ SCT300 
     TEMPO 2706/2710 6SM -RA BKN010CB 
     FM271800 23010KT 6SM HZ SCT020
       
TAF MMZC 261015Z 2612/2718 05008KT P6SM SKC TX31/2621Z TN12/2612Z 
     FM261800 05010G20KT P6SM SCT040 
     FM270400 06010KT 6SM HZ SKC 
     FM271800 03015KT P6SM SKC
       
TAF MMRX 260441Z 2606/2706 12015KT 5SM HZ SCT015 
     TEMPO 2610/2614 3SM BR BKN015 
     FM261400 13005KT P6SM SCT015 
     FM261800 13010KT P6SM SCT020 
     BECMG 2703/2704 15008KT
       
TAF MMLP 260403Z 2606/2706 16005KT P6SM SCT200 
     FM261600 34010KT P6SM SCT200 
     FM270400 15005KT P6SM SCT200
       
TAF MMMY 261024Z 2612/2718 13005KT 6SM HZ SKC TX34/2621Z TN22/2612Z 
     TEMPO 2612/2615 3SM HZ BKN010 
     FM261800 13015KT P6SM SCT030 
     FM270400 15005KT 6SM HZ SKC 
     FM271800 13010KT P6SM SCT030
       
TAF MMCU 260424Z 2606/2706 20005KT P6SM BKN200 
     FM261800 33010KT P6SM SCT030 BKN200 
     FM270300 14008KT P6SM BKN200
       
TAF MMMZ 261003Z 2612/2718 00000KT 6SM HZ SCT250 TX31/2619Z TN21/2612Z 
     FM261800 24010KT P6SM SCT250 
     FM270400 24005KT P6SM SCT250 
     FM271800 23010KT P6SM SKC
       
TAF MMML 260403Z 2606/2706 30015KT 6SM HZ SKC 
     BECMG 2608/2609 30008KT 
     FM261800 30015KT P6SM SKC 
     FM270300 33008KT P6SM SKC
       
TAF MMMA 260441Z 2606/2706 15008KT P6SM SCT015 
     TEMPO 2610/2614 3SM BR BKN020 
     FM261800 15015KT P6SM SCT020 
     TEMPO 2623/2703 SCT030CB VC TS
       
TAF MMPB 260357Z 2606/2706 35005KT P6SM BKN250 
     FM261800 34010KT P6SM BKN250 
     BECMG 2703/2704 34005KT
       
TAF MMCP 260433Z 2606/2706 03010KT P6SM SCT015 
     FM261700 31010KT P6SM BKN015 BKN060 
     TEMPO 2622/2702 4SM -RA OVC020 
     FM270200 35005KT 5SM -RA SCT015 BKN040 BKN080
       
TAF MMQT 260408Z 2606/2706 09005KT 6SM HZ SCT020 BKN200 
     FM261700 04010KT P6SM SCT020 BKN250 
     TEMPO 2623/2703 SCT020CB 
     FM270300 07010KT P6SM SCT020 BKN250
       
TAF MMZH 260357Z 2606/2706 34005KT 6SM HZ SKC 
     FM261700 24010KT P6SM SKC 
     BECMG 2703/2704 26005KT
       
TAF MMAS 260408Z 2606/2706 00000KT P6SM SKC 
     FM261700 01010KT P6SM SCT020 
     TEMPO 2622/2702 SCT020CB VC TS 
     FM270200 13010KT P6SM SCT020 BKN250
       
TAF MMTO 261008Z 2612/2718 03005KT 6SM HZ SKC TX24/2621Z TN08/2612Z 
     TEMPO 2612/2615 3SM HZ 
     FM261800 03010KT 6SM HZ SKC 
     FM270400 03005KT 6SM HZ SKC 
     FM271800 03010KT 6SM HZ SKC
       
TAF MMMX 261008Z 2612/2718 05005KT 6SM HZ SKC TX26/2621Z TN12/2612Z 
     TEMPO 2612/2615 4SM HZ 
     FM261800 05010KT P6SM SCT020 
     FM270300 03005KT 6SM HZ SKC 
     FM271800 03010KT P6SM SCT030
       
TAF MMPR 261015Z 2612/2718 00000KT P6SM SCT070 TX30/2619Z TN22/2612Z 
     FM261700 22010KT P6SM SKC 
     FM270300 23005KT P6SM SKC 
     FM271800 23010KT P6SM SKC
       
TAF MMMD 261022Z 2612/2718 02008KT 6SM HZ SKC TX32/2621Z TN24/2612Z 
     TEMPO 2612/2615 3SM HZ BKN010 
     FM261800 03015KT 6SM HZ SCT030 
     TEMPO 2622/2702 5SM TSRA BKN020CB 
     FM270600 33008KT 6SM HZ SKC 
     FM271800 33010KT 6SM HZ SCT030
       
TAF MMPN 260408Z 2606/2706 36005KT P6SM SCT020 BKN260 
     FM261700 19010KT P6SM SCT020 BKN250 
     TEMPO 2623/2703 SCT020CB VC TS 
     FM270300 00000KT 5SM HZ SCT030CB BKN250
       
TAF MMLT 260416Z 2606/2706 05010KT P6SM BKN240 
     FM261700 31016KT P6SM BKN250 
     BECMG 2703/2704 32005KT
       
TAF MMSD 260416Z 2606/2706 31010KT P6SM BKN250 
     FM261700 13010KT P6SM BKN250 
     BECMG 2703/2704 32015KT
       
TAF MMMT 260433Z 2606/2706 36010KT P6SM SCT023 
     TEMPO 2610/2614 4SM -RA BKN023 
     FM261400 35005KT P6SM BKN025 BKN070 
     TEMPO 2622/2702 5SM -RA BKN020
       
TAF MMMV 260424Z 2606/2706 13005KT 6SM HZ SKC 
     FM261800 13010KT P6SM SKC 
     FM270300 13005KT 6SM HZ SKC
       
TAF MMPG 260441Z 2606/2706 12005KT P6SM SCT035 BKN200 
     FM261700 18007KT P6SM SCT020 
     BECMG 2621/2622 17010KT 
     FM270300 17005KT P6SM SKC
       
TAF MMIO 260424Z 2606/2706 02005KT P6SM SKC 
     FM261800 03012KT P6SM SKC 
     FM270400 03005KT P6SM SKC
       
TAF MMZO 260356Z 2606/2706 30005KT P6SM SKC 
     FM261800 24010KT P6SM SKC 
     FM270400 23005KT P6SM SKC
       
TAF MMSP 261015Z 2612/2718 12005KT 6SM HZ SKC TX31/2621Z TN15/2612Z 
     TEMPO 2612/2614 3SM HZ BKN010 
     FM261800 13010KT P6SM SCT030 
     FM270300 13005KT 6SM HZ SKC 
     FM271800 13010KT P6SM SKC
       
TAF MMPS 260357Z 2606/2706 29005KT 6SM HZ SCT015 BKN070 OVC310 
     TEMPO 2610/2614 5SM RA BKN015 
     FM261800 26010KT 5SM HZ SCT015CB BKN080 BKN250 
     TEMPO 2622/2702 4SM TSRA BKN020CB 
     FM270200 30005KT 5SM -TSRA BKN015CB OVC060
       
TAF MMNL 260441Z 2606/2706 13010KT P6SM SCT040 
     BECMG 2608/2609 00000KT 
     TEMPO 2610/2614 3SM BR BKN020 
     FM261400 15010KT P6SM SCT020 
     BECMG 2621/2622 16015KT 
     FM270300 15005KT P6SM SCT020
       
TAF MMTP 261022Z 2612/2718 00000KT P6SM SCT020 BKN100 
     FM261800 22010KT P6SM SCT030 SCT200 
     TEMPO 2623/2703 6SM TSRA BKN020CB 
     FM270400 23005KT P6SM SCT010 BKN100 BKN200 
     FM271800 23010KT P6SM SCT020 SCT200
       
TAF MMEP 260408Z 2606/2706 03005KT 5SM HZ SCT015 
     TEMPO 2610/2614 3SM BR HZ BKN015 
     FM261400 04005KT P6SM SKC 
     BECMG 2621/2622 26010KT 
     FM270300 05005KT P6SM SKC
       
TAF MMTC 260424Z 2606/2706 04008KT P6SM SCT100 SCT200 
     FM261800 03010KT P6SM SCT030 SCT200 
     FM270400 03005KT P6SM SCT200
       
TAF MMLM 260416Z 2606/2706 31005KT P6SM BKN200 
     FM261700 32015KT P6SM BKN250 
     BECMG 2703/2704 30006KT
       
TAF MMOX 260357Z 2606/2706 00000KT P6SM BKN250 
     FM261700 13010KT P6SM SCT020 BKN250 
     BECMG 2702/2703 13005KT